Time;durP1;ratioP1;P1;durP2;ratioP2;P2;SDS_P1;SDS_P2;PMS_P1;PMS_P2;Temp;Humidity;BMP_temperature;BMP_pressure;BME280_temperature;BME280_humidity;BME280_pressure;Samples;Min_cycle;Max_cycle;Signal;HPM_P1;HPM_P2
2023/12/04 00:01:16;;;;;;;;;;;6.60;75.30;;;;;;5002880;28;19957;-87
2023/12/04 00:03:42;;;;;;;;;;;6.60;75.70;;;;;;4993810;28;19906;-88
2023/12/04 00:06:08;;;;;;;;;;;6.50;75.50;;;;;;4976779;28;20278;-87
2023/12/04 00:08:33;;;;;;;;;;;6.50;75.80;;;;;;4976836;28;19914;-85
2023/12/04 00:10:59;;;;;;;;;;;6.50;75.90;;;;;;4994053;28;19948;-86
2023/12/04 00:13:24;;;;;;;;;;;6.50;75.90;;;;;;4976065;28;20005;-86
2023/12/04 00:15:50;;;;;;;;;;;6.50;75.90;;;;;;4975749;28;20026;-87
2023/12/04 00:18:15;;;;;;;;;;;6.60;75.90;;;;;;4976333;28;19933;-86
2023/12/04 00:20:41;;;;;;;;;;;6.60;75.90;;;;;;4977335;28;19906;-87
2023/12/04 00:23:06;;;;;;;;;;;6.60;75.90;;;;;;4997071;28;19906;-85
2023/12/04 00:25:32;;;;;;;;;;;6.60;76.00;;;;;;4979973;28;19920;-85
2023/12/04 00:27:58;;;;;;;;;;;6.70;76.00;;;;;;5005386;28;19909;-85
2023/12/04 00:30:23;;;;;;;;;;;6.60;75.80;;;;;;4996269;28;20335;-86
2023/12/04 00:32:49;;;;;;;;;;;6.60;76.20;;;;;;4995176;28;20401;-85
2023/12/04 00:35:14;;;;;;;;;;;6.50;76.00;;;;;;4995601;28;19920;-85
2023/12/04 00:37:40;;;;;;;;;;;6.50;76.10;;;;;;5006926;28;19988;-85
2023/12/04 00:40:05;;;;;;;;;;;6.40;76.40;;;;;;4989682;28;20016;-84
2023/12/04 00:42:31;;;;;;;;;;;6.40;76.50;;;;;;4996917;28;19957;-84
2023/12/04 00:44:57;;;;;;;;;;;6.40;76.60;;;;;;4996753;28;19916;-84
2023/12/04 00:47:22;;;;;;;;;;;6.30;76.80;;;;;;4996629;28;19993;-85
2023/12/04 00:49:48;;;;;;;;;;;6.40;76.80;;;;;;4996915;28;19917;-85
2023/12/04 00:52:13;;;;;;;;;;;6.40;76.80;;;;;;4979744;28;19913;-83
2023/12/04 00:54:40;;;;;;;;;;;6.40;76.60;;;;;;4996398;28;19972;-85
2023/12/04 00:57:06;;;;;;;;;;;6.30;76.10;;;;;;4996655;28;20529;-85
2023/12/04 00:59:31;;;;;;;;;;;6.30;76.50;;;;;;4996947;28;19906;-86
2023/12/04 01:01:57;;;;;;;;;;;6.40;76.60;;;;;;4979491;28;19910;-87
2023/12/04 01:04:23;;;;;;;;;;;6.40;76.10;;;;;;4965227;28;19910;-86
2023/12/04 01:06:48;;;;;;;;;;;6.40;76.10;;;;;;4989960;28;20398;-86
2023/12/04 01:09:14;;;;;;;;;;;6.30;75.90;;;;;;4999063;28;19909;-86
2023/12/04 01:11:39;;;;;;;;;;;6.40;76.10;;;;;;4998598;28;19910;-86
2023/12/04 01:14:05;;;;;;;;;;;6.30;76.10;;;;;;5008127;28;19925;-86
2023/12/04 01:16:31;;;;;;;;;;;6.30;76.20;;;;;;4978580;28;19944;-86
2023/12/04 01:18:56;;;;;;;;;;;6.20;76.10;;;;;;5000750;28;20339;-85
2023/12/04 01:21:22;;;;;;;;;;;6.30;76.10;;;;;;5002003;28;19972;-85
2023/12/04 01:23:47;;;;;;;;;;;6.20;75.80;;;;;;4995831;28;19918;-85
2023/12/04 01:26:13;;;;;;;;;;;6.20;75.90;;;;;;5193405;23;19994;-88
2023/12/04 01:28:38;;;;;;;;;;;6.20;75.70;;;;;;5056212;28;19939;-88
2023/12/04 01:31:04;;;;;;;;;;;6.30;75.70;;;;;;5038180;28;19958;-89
2023/12/04 01:33:30;;;;;;;;;;;6.30;75.90;;;;;;5055677;28;19905;-88
2023/12/04 01:35:55;;;;;;;;;;;6.30;75.50;;;;;;5056133;28;20332;-88
2023/12/04 01:38:21;;;;;;;;;;;6.30;75.20;;;;;;5055909;28;19909;-88
2023/12/04 01:40:46;;;;;;;;;;;6.30;75.50;;;;;;5038370;28;19932;-88
2023/12/04 01:43:12;;;;;;;;;;;6.30;75.60;;;;;;5056248;28;20268;-87
2023/12/04 01:45:37;;;;;;;;;;;6.30;75.50;;;;;;5038021;28;19905;-87
2023/12/04 01:48:03;;;;;;;;;;;6.30;75.20;;;;;;5055466;28;19904;-88
2023/12/04 01:50:29;;;;;;;;;;;6.30;75.30;;;;;;5037663;28;19905;-88
2023/12/04 01:52:55;;;;;;;;;;;6.20;75.50;;;;;;5055517;28;19909;-87
2023/12/04 01:55:21;;;;;;;;;;;6.20;75.90;;;;;;5055343;28;20303;-87
2023/12/04 01:57:47;;;;;;;;;;;6.20;75.90;;;;;;5054901;28;19908;-91
2023/12/04 02:00:14;;;;;;;;;;;6.20;75.70;;;;;;5054192;28;19905;-88
2023/12/04 02:02:40;;;;;;;;;;;6.20;75.70;;;;;;5037400;28;20299;-89
2023/12/04 02:05:07;;;;;;;;;;;6.20;75.70;;;;;;5055411;28;19912;-89
2023/12/04 02:07:33;;;;;;;;;;;6.20;75.60;;;;;;5055297;28;19946;-87
2023/12/04 02:09:59;;;;;;;;;;;6.20;75.40;;;;;;5055183;28;19944;-86
2023/12/04 02:12:25;;;;;;;;;;;6.20;75.60;;;;;;5033963;28;19912;-86
2023/12/04 02:14:51;;;;;;;;;;;6.20;75.60;;;;;;5035163;28;20439;-85
2023/12/04 02:17:16;;;;;;;;;;;6.20;75.30;;;;;;5035071;28;19928;-87
2023/12/04 02:19:42;;;;;;;;;;;6.30;75.30;;;;;;5034728;28;20357;-87
2023/12/04 02:22:08;;;;;;;;;;;6.30;75.10;;;;;;5034653;28;19948;-86
2023/12/04 02:24:34;;;;;;;;;;;6.30;75.20;;;;;;5017231;28;19905;-86
2023/12/04 02:27:04;;;;;;;;;;;6.20;75.00;;;;;;5051004;28;20356;-87
2023/12/04 02:29:32;;;;;;;;;;;6.20;75.20;;;;;;5036593;28;19908;-86
2023/12/04 02:31:59;;;;;;;;;;;6.20;75.50;;;;;;5036524;28;19915;-87
2023/12/04 02:34:25;;;;;;;;;;;6.20;75.60;;;;;;5054258;28;19952;-86
2023/12/04 02:36:51;;;;;;;;;;;6.20;75.80;;;;;;5054789;28;19909;-86
2023/12/04 02:39:17;;;;;;;;;;;6.20;75.80;;;;;;5054554;28;19966;-87
2023/12/04 02:41:43;;;;;;;;;;;6.10;75.60;;;;;;5036693;28;19905;-87
2023/12/04 02:44:09;;;;;;;;;;;6.10;76.00;;;;;;5035784;28;19944;-87
2023/12/04 02:46:34;;;;;;;;;;;6.00;76.00;;;;;;5036228;28;19908;-87
2023/12/04 02:49:00;;;;;;;;;;;6.00;76.20;;;;;;5054348;28;19913;-87
2023/12/04 02:51:26;;;;;;;;;;;6.00;76.00;;;;;;5054296;28;19905;-86
2023/12/04 02:53:52;;;;;;;;;;;6.00;76.20;;;;;;5053978;28;19944;-86
2023/12/04 02:56:17;;;;;;;;;;;6.10;76.80;;;;;;5054147;28;19944;-87
2023/12/04 02:58:43;;;;;;;;;;;6.00;76.30;;;;;;5054508;28;19959;-86
2023/12/04 03:01:08;;;;;;;;;;;6.10;76.50;;;;;;5054902;28;19904;-88
2023/12/04 03:03:34;;;;;;;;;;;6.00;76.40;;;;;;5054401;28;19905;-90
2023/12/04 03:05:59;;;;;;;;;;;6.10;76.50;;;;;;5054695;28;20003;-88
2023/12/04 03:08:25;;;;;;;;;;;6.10;76.50;;;;;;5054242;28;19950;-88
2023/12/04 03:10:50;;;;;;;;;;;6.10;76.30;;;;;;5054563;28;19943;-87
2023/12/04 03:13:16;;;;;;;;;;;6.10;76.30;;;;;;5054254;28;19912;-86
2023/12/04 03:15:42;;;;;;;;;;;6.10;76.40;;;;;;5054143;28;20455;-87
2023/12/04 03:18:07;;;;;;;;;;;6.00;76.50;;;;;;5054045;28;19951;-85
2023/12/04 03:20:33;;;;;;;;;;;6.10;76.70;;;;;;5054082;28;19911;-85
2023/12/04 03:22:58;;;;;;;;;;;6.00;76.70;;;;;;5053309;28;19916;-85
2023/12/04 03:25:24;;;;;;;;;;;6.00;76.60;;;;;;5032672;28;19905;-84
2023/12/04 03:27:49;;;;;;;;;;;6.00;76.80;;;;;;5031494;28;20369;-85
2023/12/04 03:30:16;;;;;;;;;;;6.00;76.60;;;;;;5016188;28;20376;-85
2023/12/04 03:32:41;;;;;;;;;;;6.00;76.80;;;;;;5033732;28;19905;-85
2023/12/04 03:35:07;;;;;;;;;;;6.00;76.90;;;;;;5033683;28;19919;-85
2023/12/04 03:37:32;;;;;;;;;;;5.90;76.60;;;;;;5015821;28;19912;-85
2023/12/04 03:39:58;;;;;;;;;;;5.80;76.90;;;;;;5033658;28;19908;-84
2023/12/04 03:42:23;;;;;;;;;;;5.80;77.60;;;;;;5015557;28;19909;-85
2023/12/04 03:44:49;;;;;;;;;;;5.70;77.20;;;;;;5033770;28;19963;-86
2023/12/04 03:47:15;;;;;;;;;;;5.70;77.50;;;;;;5016262;28;19952;-87
2023/12/04 03:49:40;;;;;;;;;;;5.70;77.40;;;;;;5033947;28;19905;-86
2023/12/04 03:52:06;;;;;;;;;;;5.70;77.60;;;;;;5015712;28;19920;-86
2023/12/04 03:54:31;;;;;;;;;;;5.60;77.70;;;;;;5033585;28;19920;-87
2023/12/04 03:56:57;;;;;;;;;;;5.60;78.00;;;;;;5019344;28;19909;-85
2023/12/04 03:59:22;;;;;;;;;;;5.60;78.00;;;;;;5019912;28;19999;-87
2023/12/04 04:01:48;;;;;;;;;;;5.60;78.00;;;;;;5037543;28;19912;-87
2023/12/04 04:04:13;;;;;;;;;;;5.70;78.10;;;;;;5037418;28;19912;-85
2023/12/04 04:06:39;;;;;;;;;;;5.60;78.20;;;;;;5037467;28;19909;-85
2023/12/04 04:09:05;;;;;;;;;;;5.60;78.30;;;;;;5034642;28;20394;-85
2023/12/04 04:11:30;;;;;;;;;;;5.60;78.50;;;;;;5016361;28;19920;-84
2023/12/04 04:13:56;;;;;;;;;;;5.60;78.50;;;;;;5014540;28;20419;-84
2023/12/04 04:16:21;;;;;;;;;;;5.60;78.90;;;;;;5037621;28;19909;-84
2023/12/04 04:18:47;;;;;;;;;;;5.60;78.90;;;;;;5038248;28;20353;-84
2023/12/04 04:21:13;;;;;;;;;;;5.60;79.00;;;;;;5038354;28;19949;-86
2023/12/04 04:23:38;;;;;;;;;;;5.60;79.00;;;;;;5021467;28;19905;-86
2023/12/04 04:26:04;;;;;;;;;;;5.60;78.80;;;;;;5038487;28;19944;-86
2023/12/04 04:28:29;;;;;;;;;;;5.60;78.90;;;;;;5057979;28;20372;-86
2023/12/04 04:30:55;;;;;;;;;;;5.50;78.90;;;;;;5058380;28;19905;-88
2023/12/04 04:33:20;;;;;;;;;;;5.50;79.00;;;;;;5058440;28;20314;-88
2023/12/04 04:35:46;;;;;;;;;;;5.50;79.10;;;;;;5058214;28;19912;-89
2023/12/04 04:38:11;;;;;;;;;;;5.50;79.20;;;;;;5037207;28;19905;-88
2023/12/04 04:40:41;;;;;;;;;;;5.60;79.10;;;;;;5038064;28;19959;-88
2023/12/04 04:43:07;;;;;;;;;;;5.60;79.70;;;;;;5039280;28;19913;-87
2023/12/04 04:45:33;;;;;;;;;;;5.60;79.30;;;;;;5052739;28;19905;-88
2023/12/04 04:47:58;;;;;;;;;;;5.60;79.40;;;;;;5057258;28;19905;-86
2023/12/04 04:50:24;;;;;;;;;;;5.60;79.70;;;;;;5035067;28;19905;-86
2023/12/04 04:52:49;;;;;;;;;;;5.60;79.40;;;;;;5036468;28;19976;-85
2023/12/04 04:55:15;;;;;;;;;;;5.60;79.40;;;;;;5046590;28;20295;-86
2023/12/04 04:57:40;;;;;;;;;;;5.60;78.90;;;;;;5056365;28;20418;-86
2023/12/04 05:00:06;;;;;;;;;;;5.60;78.80;;;;;;5056664;28;20361;-86
2023/12/04 05:02:32;;;;;;;;;;;5.60;78.90;;;;;;5056879;28;19931;-85
2023/12/04 05:04:57;;;;;;;;;;;5.60;78.80;;;;;;5056494;28;20308;-90
2023/12/04 05:07:23;;;;;;;;;;;5.60;78.80;;;;;;5058247;28;19958;-88
2023/12/04 05:09:49;;;;;;;;;;;5.60;78.50;;;;;;5043242;28;20276;-87
2023/12/04 05:12:14;;;;;;;;;;;5.60;78.30;;;;;;5039510;28;19908;-87
2023/12/04 05:14:40;;;;;;;;;;;5.60;78.00;;;;;;5057384;28;19912;-88
2023/12/04 05:17:05;;;;;;;;;;;5.60;77.90;;;;;;5039352;28;20348;-86
2023/12/04 05:19:31;;;;;;;;;;;5.60;78.00;;;;;;5056386;28;19909;-85
2023/12/04 05:21:56;;;;;;;;;;;5.60;78.00;;;;;;5039201;28;20310;-87
2023/12/04 05:24:22;;;;;;;;;;;5.60;78.10;;;;;;5058217;28;20414;-88
2023/12/04 05:26:47;;;;;;;;;;;5.70;78.10;;;;;;5057295;28;19921;-86
2023/12/04 05:29:13;;;;;;;;;;;5.60;78.20;;;;;;5057095;28;19911;-86
2023/12/04 05:31:38;;;;;;;;;;;5.60;78.20;;;;;;5057522;28;19904;-87
2023/12/04 05:34:04;;;;;;;;;;;5.60;78.20;;;;;;5039970;28;19911;-88
2023/12/04 05:36:29;;;;;;;;;;;5.60;78.20;;;;;;5055982;28;19954;-86
2023/12/04 05:38:55;;;;;;;;;;;5.60;78.20;;;;;;5038082;28;19905;-86
2023/12/04 05:41:21;;;;;;;;;;;5.60;78.10;;;;;;5055675;28;19904;-84
2023/12/04 05:43:46;;;;;;;;;;;5.60;78.20;;;;;;5040600;28;19905;-85
2023/12/04 05:46:13;;;;;;;;;;;5.50;78.40;;;;;;5038008;28;19966;-85
2023/12/04 05:48:38;;;;;;;;;;;5.50;78.60;;;;;;5055751;28;19909;-84
2023/12/04 05:51:04;;;;;;;;;;;5.50;78.90;;;;;;5037828;28;19955;-86
2023/12/04 05:53:29;;;;;;;;;;;5.40;79.10;;;;;;5054961;28;19912;-85
2023/12/04 05:55:55;;;;;;;;;;;5.40;79.00;;;;;;5055134;28;19919;-91
2023/12/04 05:58:20;;;;;;;;;;;5.40;79.40;;;;;;5038619;28;20011;-90
2023/12/04 06:00:46;;;;;;;;;;;5.30;79.30;;;;;;5037776;28;19905;-90
2023/12/04 06:03:11;;;;;;;;;;;5.30;79.60;;;;;;5037558;28;19911;-90
2023/12/04 06:05:37;;;;;;;;;;;5.30;79.50;;;;;;5036945;28;20283;-90
2023/12/04 06:08:03;;;;;;;;;;;5.30;79.50;;;;;;5055294;28;20006;-86
2023/12/04 06:10:28;;;;;;;;;;;5.20;79.60;;;;;;5054709;28;20357;-89
2023/12/04 06:12:54;;;;;;;;;;;5.20;79.70;;;;;;5055081;28;19973;-89
2023/12/04 06:15:19;;;;;;;;;;;5.20;79.90;;;;;;5037005;28;19909;-89
2023/12/04 06:17:45;;;;;;;;;;;5.20;80.00;;;;;;5048756;28;19905;-90
2023/12/04 06:20:11;;;;;;;;;;;5.20;80.00;;;;;;5045474;28;19909;-89
2023/12/04 06:22:36;;;;;;;;;;;5.20;80.10;;;;;;5054703;28;19991;-89
2023/12/04 06:25:02;;;;;;;;;;;5.20;80.20;;;;;;5037230;28;19954;-89
2023/12/04 06:27:28;;;;;;;;;;;5.30;80.00;;;;;;5057079;28;20360;-91
2023/12/04 06:29:54;;;;;;;;;;;5.30;80.50;;;;;;5055140;28;20272;-89
2023/12/04 06:32:19;;;;;;;;;;;5.30;80.00;;;;;;5055244;28;20348;-88
2023/12/04 06:34:45;;;;;;;;;;;5.30;80.00;;;;;;5037743;28;19987;-89
2023/12/04 06:37:11;;;;;;;;;;;5.30;79.80;;;;;;5055324;28;20007;-87
2023/12/04 06:39:38;;;;;;;;;;;5.30;79.80;;;;;;5054342;28;19995;-87
2023/12/04 06:42:05;;;;;;;;;;;5.30;79.70;;;;;;5054304;28;19909;-87
2023/12/04 06:44:30;;;;;;;;;;;5.30;79.90;;;;;;5054087;28;19979;-89
2023/12/04 06:46:58;;;;;;;;;;;5.30;79.80;;;;;;5054136;28;20357;-83
2023/12/04 06:49:24;;;;;;;;;;;5.30;80.00;;;;;;5053790;28;19908;-85
2023/12/04 06:51:50;;;;;;;;;;;5.20;80.10;;;;;;5036947;28;20325;-91
2023/12/04 06:54:17;;;;;;;;;;;5.20;80.00;;;;;;5055716;28;19904;-91
2023/12/04 06:56:43;;;;;;;;;;;5.20;80.30;;;;;;5036973;28;19909;-88
2023/12/04 06:59:09;;;;;;;;;;;5.20;80.50;;;;;;5054080;28;19904;-88
2023/12/04 07:01:34;;;;;;;;;;;5.20;80.10;;;;;;5036362;28;19908;-87
2023/12/04 07:04:09;;;;;;;;;;;5.10;79.70;;;;;;5035841;28;20003;-87
2023/12/04 07:06:40;;;;;;;;;;;5.00;80.00;;;;;;5053683;28;20387;-87
2023/12/04 07:09:09;;;;;;;;;;;5.10;80.40;;;;;;5052899;28;19911;-88
2023/12/04 07:11:34;;;;;;;;;;;5.10;80.50;;;;;;5050533;28;19908;-89
2023/12/04 07:14:00;;;;;;;;;;;5.20;80.70;;;;;;5053653;28;19913;-89
2023/12/04 07:16:25;;;;;;;;;;;5.30;80.50;;;;;;5035420;28;19919;-88
2023/12/04 07:18:51;;;;;;;;;;;5.30;80.50;;;;;;5048275;28;19928;-88
2023/12/04 07:21:16;;;;;;;;;;;5.30;80.10;;;;;;5032487;28;20321;-88
2023/12/04 07:23:42;;;;;;;;;;;5.20;80.30;;;;;;5053404;28;19909;-89
2023/12/04 07:26:08;;;;;;;;;;;5.20;80.50;;;;;;5035815;28;20372;-89
2023/12/04 07:28:34;;;;;;;;;;;5.30;80.70;;;;;;5053713;28;19909;-88
2023/12/04 07:30:59;;;;;;;;;;;5.20;80.70;;;;;;5032114;28;19956;-87
2023/12/04 07:33:26;;;;;;;;;;;5.20;80.80;;;;;;5048972;28;19908;-85
2023/12/04 07:35:51;;;;;;;;;;;5.20;80.80;;;;;;5035163;28;19912;-83
2023/12/04 07:38:17;;;;;;;;;;;5.10;80.80;;;;;;5044344;28;20245;-93
2023/12/04 07:40:43;;;;;;;;;;;5.00;80.50;;;;;;5053515;28;20357;-91
2023/12/04 07:43:09;;;;;;;;;;;5.00;81.20;;;;;;5031853;28;19940;-85
2023/12/04 07:45:36;;;;;;;;;;;5.00;81.50;;;;;;5053125;28;19955;-85
2023/12/04 07:48:03;;;;;;;;;;;4.90;81.20;;;;;;5052632;28;19926;-85
2023/12/04 07:50:29;;;;;;;;;;;4.90;81.70;;;;;;5035066;28;19912;-85
2023/12/04 07:52:54;;;;;;;;;;;5.00;81.80;;;;;;5047132;28;19920;-86
2023/12/04 07:55:20;;;;;;;;;;;5.00;81.70;;;;;;5044604;28;19913;-85
2023/12/04 07:57:45;;;;;;;;;;;5.10;81.50;;;;;;5053037;28;20260;-85
2023/12/04 08:00:12;;;;;;;;;;;5.10;81.50;;;;;;5049503;28;19915;-89
2023/12/04 08:02:37;;;;;;;;;;;5.00;81.50;;;;;;5052161;28;19916;-89
2023/12/04 08:05:03;;;;;;;;;;;5.10;81.30;;;;;;5035106;28;19901;-89
2023/12/04 08:07:29;;;;;;;;;;;5.10;81.10;;;;;;5053874;28;19905;-89
2023/12/04 08:09:54;;;;;;;;;;;5.00;80.10;;;;;;5053450;28;19908;-89
2023/12/04 08:12:20;;;;;;;;;;;5.00;81.30;;;;;;5035959;28;19904;-89
2023/12/04 08:14:46;;;;;;;;;;;5.00;81.10;;;;;;5053094;28;19909;-89
2023/12/04 08:17:12;;;;;;;;;;;5.10;81.40;;;;;;5016329;28;19991;-88
2023/12/04 08:19:37;;;;;;;;;;;5.10;80.60;;;;;;5052887;28;19915;-89
2023/12/04 08:22:03;;;;;;;;;;;5.20;81.20;;;;;;5053142;28;19904;-88
2023/12/04 08:24:29;;;;;;;;;;;5.20;80.80;;;;;;5035046;28;19905;-88
2023/12/04 08:26:56;;;;;;;;;;;5.30;80.90;;;;;;5027495;28;19955;-88
2023/12/04 08:29:22;;;;;;;;;;;5.40;81.10;;;;;;5033138;28;20353;-88
2023/12/04 08:31:47;;;;;;;;;;;5.50;83.50;;;;;;5012250;28;19920;-89
2023/12/04 08:34:16;;;;;;;;;;;5.70;80.90;;;;;;4996945;28;19913;-88
2023/12/04 08:36:42;;;;;;;;;;;5.80;80.70;;;;;;5002682;28;19909;-87
2023/12/04 08:39:07;;;;;;;;;;;5.90;80.60;;;;;;5032646;28;19920;-86
2023/12/04 08:41:33;;;;;;;;;;;5.90;78.50;;;;;;5018751;28;19916;-85
2023/12/04 08:43:58;;;;;;;;;;;5.90;78.30;;;;;;5026368;28;19919;-90
2023/12/04 08:46:24;;;;;;;;;;;5.90;78.60;;;;;;5025059;28;19910;-87
2023/12/04 08:48:50;;;;;;;;;;;5.90;78.10;;;;;;5019304;28;19905;-87
2023/12/04 08:51:19;;;;;;;;;;;5.90;79.20;;;;;;5018824;28;19905;-86
2023/12/04 08:53:44;;;;;;;;;;;6.00;79.50;;;;;;5035783;28;19905;-87
2023/12/04 08:56:10;;;;;;;;;;;6.00;78.40;;;;;;5035547;28;19913;-87
2023/12/04 08:58:37;;;;;;;;;;;6.10;78.40;;;;;;5018806;28;19909;-87
2023/12/04 09:01:03;;;;;;;;;;;6.10;78.20;;;;;;5036558;28;19912;-90
2023/12/04 09:03:31;;;;;;;;;;;6.10;79.00;;;;;;5016449;28;19996;-90
2023/12/04 09:05:57;;;;;;;;;;;6.10;78.30;;;;;;5025738;28;19923;-91
2023/12/04 09:08:22;;;;;;;;;;;6.10;77.80;;;;;;5036519;28;19936;-90
2023/12/04 09:10:48;;;;;;;;;;;6.10;77.80;;;;;;5018906;28;19913;-90
2023/12/04 09:13:14;;;;;;;;;;;6.10;78.30;;;;;;5036788;28;19987;-90
2023/12/04 09:15:40;;;;;;;;;;;6.10;78.70;;;;;;5019047;28;19916;-89
2023/12/04 09:18:05;;;;;;;;;;;6.20;78.80;;;;;;5018621;28;19905;-88
2023/12/04 09:20:31;;;;;;;;;;;6.30;78.90;;;;;;5035924;28;19916;-88
2023/12/04 09:22:56;;;;;;;;;;;6.40;78.30;;;;;;5035954;28;19909;-88
2023/12/04 09:25:22;;;;;;;;;;;6.40;78.00;;;;;;5018271;28;19955;-90
2023/12/04 09:27:47;;;;;;;;;;;6.40;77.90;;;;;;5032940;28;19920;-90
2023/12/04 09:30:13;;;;;;;;;;;6.40;78.40;;;;;;5038177;28;20376;-90
2023/12/04 09:32:39;;;;;;;;;;;6.40;77.70;;;;;;5038118;28;19904;-90
2023/12/04 09:35:06;;;;;;;;;;;6.40;78.10;;;;;;5056328;28;19909;-90
2023/12/04 09:37:31;;;;;;;;;;;6.50;78.10;;;;;;5038234;28;19911;-90
2023/12/04 09:39:57;;;;;;;;;;;6.50;77.80;;;;;;5056087;28;20277;-91
2023/12/04 09:42:23;;;;;;;;;;;6.60;77.10;;;;;;5056378;28;20023;-90
2023/12/04 09:44:51;;;;;;;;;;;6.50;76.70;;;;;;5038527;28;19904;-90
2023/12/04 09:47:17;;;;;;;;;;;6.50;77.30;;;;;;5056242;28;19951;-91
2023/12/04 09:49:43;;;;;;;;;;;6.50;77.30;;;;;;5056110;28;20007;-90
2023/12/04 09:52:10;;;;;;;;;;;6.40;77.40;;;;;;5037647;28;19904;-90
2023/12/04 09:54:35;;;;;;;;;;;6.50;77.30;;;;;;5037503;28;19909;-90
2023/12/04 09:57:01;;;;;;;;;;;6.40;76.90;;;;;;5055393;28;19915;-90
2023/12/04 09:59:29;;;;;;;;;;;6.40;77.30;;;;;;5055959;28;19909;-90
2023/12/04 10:01:55;;;;;;;;;;;6.50;77.70;;;;;;5055419;28;19912;-90
2023/12/04 10:04:21;;;;;;;;;;;6.60;78.00;;;;;;5037579;28;19927;-91
2023/12/04 10:06:49;;;;;;;;;;;6.70;77.90;;;;;;5055456;28;19927;-90
2023/12/04 10:09:17;;;;;;;;;;;6.90;77.60;;;;;;5054945;28;20307;-90
2023/12/04 10:11:44;;;;;;;;;;;7.00;76.70;;;;;;5054912;28;19909;-90
2023/12/04 10:14:17;;;;;;;;;;;7.10;76.60;;;;;;5055690;28;20288;-90
2023/12/04 10:16:43;;;;;;;;;;;7.20;75.90;;;;;;5038014;28;19909;-89
2023/12/04 10:19:18;;;;;;;;;;;7.20;75.80;;;;;;5038360;28;20268;-90
2023/12/04 10:21:48;;;;;;;;;;;7.30;75.50;;;;;;5037845;28;19904;-90
2023/12/04 10:24:26;;;;;;;;;;;7.40;75.40;;;;;;5038161;28;20368;-90
2023/12/04 10:26:52;;;;;;;;;;;7.60;75.30;;;;;;5055033;28;20360;-91
2023/12/04 10:29:18;;;;;;;;;;;7.70;75.30;;;;;;5037618;28;19916;-91
2023/12/04 10:31:43;;;;;;;;;;;7.80;74.40;;;;;;5037680;28;19905;-91
2023/12/04 10:34:12;;;;;;;;;;;8.00;74.00;;;;;;5055509;28;19905;-90
2023/12/04 10:36:38;;;;;;;;;;;8.20;74.40;;;;;;5036959;28;19928;-91
2023/12/04 10:39:06;;;;;;;;;;;8.20;72.30;;;;;;5054531;28;19911;-90
2023/12/04 10:41:32;;;;;;;;;;;8.20;71.90;;;;;;5037113;28;20361;-91
2023/12/04 10:43:58;;;;;;;;;;;8.10;69.40;;;;;;5036897;28;19962;-90
2023/12/04 10:46:27;;;;;;;;;;;7.90;71.40;;;;;;5036253;28;19905;-89
2023/12/04 10:48:53;;;;;;;;;;;7.80;72.10;;;;;;5054996;28;19911;-89
2023/12/04 10:51:19;;;;;;;;;;;7.80;72.20;;;;;;5036467;28;20335;-89
2023/12/04 10:53:44;;;;;;;;;;;7.80;72.30;;;;;;5054482;28;20352;-89
2023/12/04 10:56:12;;;;;;;;;;;7.60;70.60;;;;;;5036272;28;19909;-91
2023/12/04 10:58:38;;;;;;;;;;;7.20;71.40;;;;;;5036631;28;20435;-90
2023/12/04 11:01:07;;;;;;;;;;;7.10;72.90;;;;;;5036579;28;20353;-90
2023/12/04 11:03:36;;;;;;;;;;;6.90;72.80;;;;;;5036169;28;19905;-91
2023/12/04 11:06:04;;;;;;;;;;;6.90;73.80;;;;;;5053406;28;20268;-90
2023/12/04 11:08:32;;;;;;;;;;;7.00;74.20;;;;;;5035863;28;20383;-91
2023/12/04 11:11:09;;;;;;;;;;;7.10;74.60;;;;;;5035771;28;19991;-91
2023/12/04 11:13:40;;;;;;;;;;;7.20;74.50;;;;;;5033201;28;19928;-91
2023/12/04 11:16:09;;;;;;;;;;;7.30;74.20;;;;;;5053758;28;19909;-91
2023/12/04 11:18:37;;;;;;;;;;;7.30;74.00;;;;;;5053981;28;20410;-92
2023/12/04 11:21:10;;;;;;;;;;;7.30;74.00;;;;;;5053016;28;19997;-91
2023/12/04 11:23:36;;;;;;;;;;;7.30;73.70;;;;;;5054242;28;20006;-92
2023/12/04 11:26:03;;;;;;;;;;;7.30;74.50;;;;;;5052916;28;19905;-91
2023/12/04 11:28:30;;;;;;;;;;;7.30;74.10;;;;;;5036529;28;19909;-92
2023/12/04 11:30:55;;;;;;;;;;;7.10;74.30;;;;;;5054126;28;20395;-91
2023/12/04 11:33:21;;;;;;;;;;;7.00;74.40;;;;;;5036012;28;19909;-89
2023/12/04 11:35:46;;;;;;;;;;;7.00;75.00;;;;;;5053916;28;19952;-89
2023/12/04 11:38:16;;;;;;;;;;;7.00;75.40;;;;;;5035944;28;20373;-91
2023/12/04 11:40:42;;;;;;;;;;;7.10;75.30;;;;;;5035580;28;20587;-91
2023/12/04 11:43:27;;;;;;;;;;;7.10;74.90;;;;;;5053519;28;19955;-88
2023/12/04 11:45:53;;;;;;;;;;;7.20;75.10;;;;;;5035611;28;20533;-87
2023/12/04 11:48:23;;;;;;;;;;;7.20;74.20;;;;;;5053066;28;19927;-87
2023/12/04 11:50:50;;;;;;;;;;;7.30;74.50;;;;;;5035764;28;19904;-87
2023/12/04 11:53:16;;;;;;;;;;;7.30;74.30;;;;;;5035941;28;20003;-88
2023/12/04 11:55:41;;;;;;;;;;;7.20;71.30;;;;;;5053991;28;19948;-87
2023/12/04 11:58:11;;;;;;;;;;;7.20;71.00;;;;;;5052537;28;19905;-88
2023/12/04 12:00:37;;;;;;;;;;;7.10;71.30;;;;;;5054148;28;19919;-88
2023/12/04 12:03:06;;;;;;;;;;;7.00;72.30;;;;;;5035856;28;20357;-88
2023/12/04 12:05:33;;;;;;;;;;;7.10;72.80;;;;;;5035620;28;19909;-87
2023/12/04 12:08:05;;;;;;;;;;;7.20;73.20;;;;;;5053107;28;20289;-86
2023/12/04 12:10:30;;;;;;;;;;;7.30;73.70;;;;;;5052471;28;19908;-85
2023/12/04 12:12:56;;;;;;;;;;;7.40;72.60;;;;;;5052910;28;20276;-86
2023/12/04 12:15:22;;;;;;;;;;;7.60;73.30;;;;;;5034571;28;20360;-86
2023/12/04 12:17:49;;;;;;;;;;;7.70;73.10;;;;;;5055525;28;19927;-85
2023/12/04 12:20:14;;;;;;;;;;;7.90;72.90;;;;;;5056734;28;19916;-85
2023/12/04 12:22:43;;;;;;;;;;;8.10;72.40;;;;;;5056702;28;19905;-85
2023/12/04 12:25:10;;;;;;;;;;;8.20;72.00;;;;;;5055453;28;20310;-87
2023/12/04 12:27:35;;;;;;;;;;;8.30;71.10;;;;;;5064062;28;20395;-88
2023/12/04 12:30:03;;;;;;;;;;;8.40;70.90;;;;;;5039317;28;19907;-87
2023/12/04 12:32:28;;;;;;;;;;;8.40;68.20;;;;;;5039015;28;20364;-89
2023/12/04 12:34:57;;;;;;;;;;;8.40;67.30;;;;;;5055474;28;19943;-90
2023/12/04 12:37:23;;;;;;;;;;;8.30;68.00;;;;;;5056932;28;20502;-88
2023/12/04 12:39:50;;;;;;;;;;;8.20;69.50;;;;;;5056648;28;19905;-88
2023/12/04 12:42:23;;;;;;;;;;;8.20;69.40;;;;;;5056895;28;19905;-89
2023/12/04 12:44:49;;;;;;;;;;;8.30;69.70;;;;;;5039328;28;19905;-90
2023/12/04 12:47:15;;;;;;;;;;;8.20;69.70;;;;;;5039027;28;19911;-89
2023/12/04 12:49:40;;;;;;;;;;;8.20;69.90;;;;;;5056186;28;20349;-88
2023/12/04 12:52:09;;;;;;;;;;;8.20;69.90;;;;;;5056438;28;19908;-89
2023/12/04 12:54:36;;;;;;;;;;;8.10;67.60;;;;;;5056278;28;19958;-89
2023/12/04 12:57:02;;;;;;;;;;;8.00;69.30;;;;;;5056387;28;19904;-90
2023/12/04 12:59:28;;;;;;;;;;;7.90;69.00;;;;;;5056715;28;20364;-90
2023/12/04 13:01:53;;;;;;;;;;;7.90;70.40;;;;;;5055381;28;19959;-90
2023/12/04 13:04:19;;;;;;;;;;;7.90;70.40;;;;;;5056713;28;19951;-89
2023/12/04 13:06:44;;;;;;;;;;;7.90;70.40;;;;;;5038473;28;19911;-88
2023/12/04 13:09:17;;;;;;;;;;;7.90;70.90;;;;;;5038539;28;19912;-89
2023/12/04 13:11:46;;;;;;;;;;;7.90;71.00;;;;;;5038670;28;20046;-89
2023/12/04 13:14:13;;;;;;;;;;;8.00;70.70;;;;;;5054234;28;19911;-89
2023/12/04 13:16:39;;;;;;;;;;;8.00;70.00;;;;;;5036858;28;19948;-89
2023/12/04 13:19:05;;;;;;;;;;;8.00;69.20;;;;;;5018644;28;19912;-88
2023/12/04 13:21:31;;;;;;;;;;;7.90;69.00;;;;;;5048426;28;19908;-88
2023/12/04 13:23:57;;;;;;;;;;;7.90;70.30;;;;;;5038295;28;21129;-89
2023/12/04 13:26:24;;;;;;;;;;;7.90;69.10;;;;;;5026580;28;20285;-89
2023/12/04 13:28:49;;;;;;;;;;;7.90;70.60;;;;;;5055325;28;19909;-89
2023/12/04 13:31:15;;;;;;;;;;;7.70;69.70;;;;;;5038272;28;20379;-89
2023/12/04 13:33:43;;;;;;;;;;;7.70;70.20;;;;;;5055724;28;19999;-89
2023/12/04 13:36:09;;;;;;;;;;;7.60;70.30;;;;;;5037319;28;19913;-89
2023/12/04 13:38:35;;;;;;;;;;;7.60;71.10;;;;;;5037422;28;19908;-90
2023/12/04 13:41:18;;;;;;;;;;;7.50;71.40;;;;;;5055646;28;19948;-90
2023/12/04 13:43:50;;;;;;;;;;;7.60;71.80;;;;;;5038113;28;19973;-89
2023/12/04 13:46:15;;;;;;;;;;;7.70;71.80;;;;;;5038002;28;19927;-90
2023/12/04 13:48:41;;;;;;;;;;;7.70;72.10;;;;;;5056165;28;20376;-91
2023/12/04 13:51:08;;;;;;;;;;;7.80;72.30;;;;;;5055004;28;19940;-88
2023/12/04 13:53:34;;;;;;;;;;;7.80;72.20;;;;;;5040334;28;20432;-89
2023/12/04 13:58:40;;;;;;;;;;;7.80;71.40;;;;;;5057861;28;19912;-90
2023/12/04 14:01:13;;;;;;;;;;;7.70;70.50;;;;;;5065198;28;19926;-89
2023/12/04 14:03:39;;;;;;;;;;;7.70;71.90;;;;;;5070377;28;19904;-88
2023/12/04 14:06:05;;;;;;;;;;;7.70;72.10;;;;;;5066840;28;19911;-88
2023/12/04 14:08:31;;;;;;;;;;;7.60;72.10;;;;;;5038407;28;19905;-87
2023/12/04 14:10:57;;;;;;;;;;;7.50;71.40;;;;;;5055795;28;20364;-90
2023/12/04 14:13:22;;;;;;;;;;;7.50;72.00;;;;;;5054851;28;20368;-88
2023/12/04 14:15:48;;;;;;;;;;;7.40;71.20;;;;;;5037024;28;19917;-88
2023/12/04 14:18:14;;;;;;;;;;;7.40;71.20;;;;;;5037182;28;19927;-89
2023/12/04 14:20:39;;;;;;;;;;;7.30;72.20;;;;;;5037011;28;20327;-88
2023/12/04 14:23:05;;;;;;;;;;;7.40;72.00;;;;;;5053363;28;20373;-89
2023/12/04 14:25:30;;;;;;;;;;;7.40;72.50;;;;;;5055087;28;20272;-89
2023/12/04 14:27:56;;;;;;;;;;;7.40;73.10;;;;;;5054230;28;19916;-89